ěÝzenÝ letovÚho provozu ╚eskÚ republiky
Letiste: LKCS Aktualizace: 19.06.2024 03:00:41  UTC
 METAR LKCS 19.06. 03:00 ...
METAR LKCS 190300Z AUTO 20003KT CAVOK 15/14 Q1013=
 TAF LKCS 19.06. 02:28 RRL
TAF LKCS 190200Z 1903/1912 18005KT CAVOK      TEMPO 1904/1910 30008KT=